aviador You're here:

SAWG Decoded Metar

RIO GALLEGOS in ARGENTINA
Report Time2018-01-19 05:00:00
UTC Time2018-01-19 05:35:25
Flight Rules vfr VFR
Wind290° at 07 kt
W.Decomp.*RWY 25: 6.2 kt HW 3.3 kt RCW
W.Rank290° ranks 4
Current wind is below 290° avg. (11.1)
Visibility9999 m
Phenomena:N/A
Clouds:N/A
Expected CloudBase > 2,800 ft AGL from Temp-Dew spread
CeilingNone
Temp14°C (ISA -1)
Dew Point07°C (63% RH)
AAT10.8°C
QNH1005 hPa
Density Alt367 ft
Elevation62 ft
Report Wrong Elevation
Raw Report
SAWG 190500Z 29007KT 270V360 CAVOK 14/07 Q1005=

Extra information for SAWG:More info

Metar Taf Metar & Taf Last 4 Metars F.Rules Stats Wind Profile Meteogram Temp Stats Airport Information Weather charts Add Link Nearby VenuesMetar ALERT Operation Metar Decoded Social comments